createdAt,value
2019-01-12T00:03:08.679Z,-0.02
2019-01-12T00:08:12.824Z,0.05
2019-01-12T00:13:16.870Z,0.08
2019-01-12T00:18:20.819Z,-0.02
2019-01-12T00:23:24.880Z,0.06
2019-01-12T00:28:29.050Z,-0.03
2019-01-12T00:33:33.710Z,-0.02
2019-01-12T00:38:38.132Z,-0.01
2019-01-12T00:43:42.158Z,-0.04
2019-01-12T00:48:47.139Z,0.04
2019-01-12T00:53:51.184Z,-0.01
2019-01-12T00:58:55.128Z,-0.04
2019-01-12T01:03:59.342Z,-0.07
2019-01-12T01:09:07.648Z,-0.16
2019-01-12T01:14:11.644Z,-0.15
2019-01-12T01:19:15.857Z,-0.09
2019-01-12T01:24:19.920Z,-0.28
2019-01-12T01:29:24.066Z,-0.32
2019-01-12T01:34:28.065Z,-0.41
2019-01-12T01:39:32.133Z,-0.37
2019-01-12T01:44:36.099Z,-0.47
2019-01-12T01:49:40.550Z,-0.43
2019-01-12T01:54:44.773Z,-0.45
2019-01-12T01:59:48.803Z,-0.50
2019-01-12T02:04:52.840Z,-0.48
2019-01-12T02:09:56.830Z,-0.54
2019-01-12T02:15:01.046Z,-0.58
2019-01-12T02:20:05.280Z,-0.57
2019-01-12T02:25:09.560Z,-0.57
2019-01-12T02:30:22.301Z,-0.63
2019-01-12T02:35:26.479Z,-0.70
2019-01-12T02:40:30.623Z,-0.74
2019-01-12T02:45:34.785Z,-0.65
2019-01-12T02:50:39.640Z,-0.72
2019-01-12T02:55:43.670Z,-0.71
2019-01-12T03:00:47.682Z,-0.76
2019-01-12T03:05:52.072Z,-0.76
2019-01-12T03:10:56.191Z,-0.76
2019-01-12T03:16:00.219Z,-0.84
2019-01-12T03:21:06.750Z,-0.85
2019-01-12T03:26:12.284Z,-0.92
2019-01-12T03:31:16.407Z,-1.00
2019-01-12T03:36:23.566Z,-1.10
2019-01-12T03:41:27.567Z,-1.03
2019-01-12T03:46:31.617Z,-1.06
2019-01-12T03:51:39.147Z,-1.06
2019-01-12T03:56:43.194Z,-1.17
2019-01-12T04:01:49.066Z,-1.19
2019-01-12T04:06:53.084Z,-1.19
2019-01-12T04:11:57.163Z,-1.20
2019-01-12T04:17:01.345Z,-1.21
2019-01-12T04:22:05.412Z,-1.29
2019-01-12T04:27:09.317Z,-1.37
2019-01-12T04:32:13.355Z,-1.44
2019-01-12T04:37:17.446Z,-1.50
2019-01-12T04:42:22.005Z,-1.55
2019-01-12T04:47:26.132Z,-1.62
2019-01-12T04:52:30.975Z,-1.66
2019-01-12T04:57:34.953Z,-1.71
2019-01-12T05:02:39.119Z,-1.67
2019-01-12T05:07:43.046Z,-1.78
2019-01-12T05:12:47.009Z,-1.77
2019-01-12T05:17:51.064Z,-1.71
2019-01-12T05:22:54.993Z,-1.75
2019-01-12T05:28:00.636Z,-1.64
2019-01-12T05:33:06.353Z,-1.67
2019-01-12T05:38:10.500Z,-1.74
2019-01-12T05:43:15.982Z,-1.73
2019-01-12T05:48:20.126Z,-1.75
2019-01-12T05:53:24.685Z,-1.76
2019-01-12T05:58:28.605Z,-1.80
2019-01-12T06:03:33.101Z,-1.73
2019-01-12T06:08:37.308Z,-1.67
2019-01-12T06:13:41.898Z,-1.67
2019-01-12T06:18:47.550Z,-1.62
2019-01-12T06:23:51.412Z,-1.62
2019-01-12T06:28:55.603Z,-1.67
2019-01-12T06:33:59.501Z,-1.68
2019-01-12T06:39:08.288Z,-1.71
2019-01-12T06:44:14.191Z,-1.73
2019-01-12T06:49:18.375Z,-1.61
2019-01-12T06:54:25.152Z,-1.58
2019-01-12T06:59:29.363Z,-1.50
2019-01-12T07:04:35.417Z,-1.53
2019-01-12T07:09:39.397Z,-1.54
2019-01-12T07:14:43.576Z,-1.53
2019-01-12T07:19:47.921Z,-1.54
2019-01-12T07:24:52.401Z,-1.47
2019-01-12T07:29:56.472Z,-1.31
2019-01-12T07:35:00.898Z,-1.26
2019-01-12T07:40:05.215Z,-1.05
2019-01-12T07:45:09.390Z,-0.91
2019-01-12T07:50:14.593Z,-0.73
2019-01-12T07:55:19.389Z,-0.60
2019-01-12T08:00:23.504Z,-0.43
2019-01-12T08:05:27.792Z,-0.35
2019-01-12T08:10:31.739Z,-0.31
2019-01-12T08:15:35.757Z,-0.19
2019-01-12T08:20:39.779Z,-0.12
2019-01-12T08:25:44.029Z,0.04
2019-01-12T08:30:47.930Z,0.13
2019-01-12T08:35:51.989Z,0.14
2019-01-12T08:40:56.113Z,0.23
2019-01-12T08:46:00.830Z,0.38
2019-01-12T08:51:05.281Z,0.44
2019-01-12T08:56:10.451Z,0.54
2019-01-12T09:01:14.661Z,0.64
2019-01-12T09:06:18.695Z,0.82
2019-01-12T09:11:22.777Z,1.02
2019-01-12T09:16:27.025Z,0.91
2019-01-12T09:21:31.044Z,0.75
2019-01-12T09:26:36.468Z,0.81
2019-01-12T09:31:40.450Z,1.01
2019-01-12T09:36:44.628Z,1.06
2019-01-12T09:41:48.594Z,1.28
2019-01-12T09:46:52.728Z,1.35
2019-01-12T09:51:57.165Z,1.34
2019-01-12T09:57:03.667Z,1.67
2019-01-12T10:02:08.029Z,1.67
2019-01-12T10:07:12.547Z,1.46
2019-01-12T10:12:16.532Z,1.18
2019-01-12T10:17:20.655Z,1.18
2019-01-12T10:22:28.582Z,1.22
2019-01-12T10:27:30.931Z,1.49
2019-01-12T10:32:35.147Z,1.55
2019-01-12T10:37:39.478Z,1.41
2019-01-12T10:42:43.785Z,1.61
2019-01-12T10:47:49.469Z,1.70
2019-01-12T10:52:53.963Z,1.71
2019-01-12T10:58:00.140Z,1.71
2019-01-12T11:03:04.901Z,1.67
2019-01-12T11:08:08.986Z,1.99
2019-01-12T11:13:12.925Z,2.01
2019-01-12T11:18:16.850Z,1.93
2019-01-12T11:23:21.695Z,1.95
2019-01-12T11:28:34.732Z,2.05
2019-01-12T11:33:39.394Z,2.19
2019-01-12T11:38:52.556Z,2.26
2019-01-12T11:43:58.169Z,2.37
2019-01-12T11:49:02.799Z,2.60
2019-01-12T11:54:39.811Z,2.81
2019-01-12T11:59:49.904Z,2.83
2019-01-12T12:04:53.915Z,2.87
2019-01-12T12:09:58.135Z,2.98
2019-01-12T12:15:02.182Z,3.22
2019-01-12T12:20:10.263Z,3.22
2019-01-12T12:25:14.515Z,3.16
2019-01-12T12:30:21.271Z,3.11
2019-01-12T12:35:25.558Z,3.22
2019-01-12T12:40:29.923Z,3.35
2019-01-12T12:45:35.701Z,3.28
2019-01-12T12:50:39.695Z,3.33
2019-01-12T12:55:45.657Z,3.45
2019-01-12T13:00:50.458Z,3.42
2019-01-12T13:05:54.760Z,3.45
2019-01-12T13:10:58.929Z,3.58
2019-01-12T13:16:03.173Z,3.44
2019-01-12T13:21:07.189Z,3.38
2019-01-12T13:26:11.223Z,3.20
2019-01-12T13:31:15.225Z,3.31
2019-01-12T13:36:19.394Z,2.98
2019-01-12T13:41:23.321Z,2.73
2019-01-12T13:46:27.516Z,2.47
2019-01-12T13:51:31.501Z,2.12
2019-01-12T13:56:35.666Z,1.88
2019-01-12T14:01:40.350Z,1.70
2019-01-12T14:06:44.582Z,1.48
2019-01-12T14:11:48.713Z,1.36
2019-01-12T14:16:52.968Z,1.20
2019-01-12T14:21:57.122Z,1.12
2019-01-12T14:27:01.309Z,1.02
2019-01-12T14:32:05.451Z,1.00
2019-01-12T14:37:09.490Z,0.86
2019-01-12T14:42:13.415Z,0.73
2019-01-12T14:47:17.403Z,0.70
2019-01-12T14:52:21.525Z,0.61
2019-01-12T14:57:25.827Z,0.48
2019-01-12T15:02:30.514Z,0.42
2019-01-12T15:07:34.829Z,0.45
2019-01-12T15:12:39.038Z,0.42
2019-01-12T15:17:42.946Z,0.24
2019-01-12T15:22:47.629Z,0.22
2019-01-12T15:27:51.883Z,0.14
2019-01-12T15:32:55.973Z,0.12
2019-01-12T15:38:00.021Z,0.05
2019-01-12T15:43:04.265Z,-0.13
2019-01-12T15:48:08.359Z,-0.12
2019-01-12T15:53:13.564Z,-0.22
2019-01-12T15:58:17.682Z,-0.27
2019-01-12T16:03:22.137Z,-0.15
2019-01-12T16:08:26.316Z,-0.17
2019-01-12T16:13:31.170Z,-0.21
2019-01-12T16:18:36.039Z,-0.31
2019-01-12T16:23:40.074Z,-0.33
2019-01-12T16:28:44.436Z,-0.36
2019-01-12T16:33:48.711Z,-0.36
2019-01-12T16:38:52.788Z,-0.34
2019-01-12T16:43:56.861Z,-0.33
2019-01-12T16:49:00.986Z,-0.39
2019-01-12T16:54:05.076Z,-0.42
2019-01-12T16:59:09.224Z,-0.45
2019-01-12T17:04:13.865Z,-0.46
2019-01-12T17:09:17.917Z,-0.48
2019-01-12T17:14:22.112Z,-0.58
2019-01-12T17:19:26.284Z,-0.54
2019-01-12T17:24:30.516Z,-0.58
2019-01-12T17:29:35.776Z,-0.67
2019-01-12T17:34:40.936Z,-0.65
2019-01-12T17:39:46.041Z,-0.70
2019-01-12T17:44:50.440Z,-0.69
2019-01-12T17:49:54.410Z,-0.64
2019-01-12T17:54:58.507Z,-0.64
2019-01-12T18:00:03.711Z,-0.64
2019-01-12T18:05:10.141Z,-0.53
2019-01-12T18:10:15.213Z,-0.56
2019-01-12T18:15:19.466Z,-0.55
2019-01-12T18:20:23.606Z,-0.42
2019-01-12T18:25:27.648Z,-0.45
2019-01-12T18:30:31.845Z,-0.54
2019-01-12T18:35:36.106Z,-0.54
2019-01-12T18:40:40.289Z,-0.58
2019-01-12T18:45:44.231Z,-0.51
2019-01-12T18:50:49.345Z,-0.50
2019-01-12T18:55:53.220Z,-0.36
2019-01-12T19:00:58.575Z,-0.36
2019-01-12T19:06:03.987Z,-0.37
2019-01-12T19:11:08.234Z,-0.25
2019-01-12T19:16:12.304Z,-0.32
2019-01-12T19:21:16.445Z,-0.23
2019-01-12T19:26:20.518Z,-0.32
2019-01-12T19:31:24.599Z,-0.27
2019-01-12T19:36:29.039Z,-0.22
2019-01-12T19:41:33.175Z,-0.18
2019-01-12T19:46:37.507Z,-0.15
2019-01-12T19:51:41.853Z,-0.19
2019-01-12T19:56:45.944Z,-0.19
2019-01-12T20:01:50.271Z,-0.16
2019-01-12T20:06:54.752Z,-0.11
2019-01-12T20:11:58.780Z,-0.19
2019-01-12T20:17:04.917Z,-0.14
2019-01-12T20:22:09.773Z,-0.13
2019-01-12T20:27:13.768Z,-0.14
2019-01-12T20:32:49.582Z,-0.13
2019-01-12T20:38:34.584Z,-0.17
2019-01-12T20:44:43.719Z,-0.18
2019-01-12T20:50:38.419Z,-0.18
2019-01-12T20:56:24.249Z,-0.23
2019-01-12T21:01:39.328Z,-0.18
2019-01-12T21:07:07.215Z,-0.24
2019-01-12T21:13:06.001Z,-0.21
2019-01-12T21:18:10.107Z,-0.20
2019-01-12T21:23:14.175Z,-0.41
2019-01-12T21:28:18.715Z,-0.26
2019-01-12T21:33:22.665Z,-0.22
2019-01-12T21:38:26.762Z,-0.14
2019-01-12T21:43:30.873Z,-0.23
2019-01-12T21:48:34.955Z,-0.15
2019-01-12T21:53:39.211Z,-0.21
2019-01-12T21:58:43.643Z,-0.19
2019-01-12T22:03:47.642Z,-0.21
2019-01-12T22:08:51.860Z,-0.21
2019-01-12T22:13:57.737Z,-0.13
2019-01-12T22:19:02.809Z,-0.19
2019-01-12T22:24:06.992Z,-0.17
2019-01-12T22:29:10.966Z,-0.17
2019-01-12T22:34:14.867Z,-0.21
2019-01-12T22:39:18.922Z,-0.21
2019-01-12T22:44:22.819Z,-0.31
2019-01-12T22:49:26.851Z,-0.29
2019-01-12T22:54:30.940Z,-0.42
2019-01-12T22:59:35.039Z,-0.54
2019-01-12T23:04:38.953Z,-0.97
2019-01-12T23:09:43.944Z,-1.16
2019-01-12T23:14:48.285Z,-1.00
2019-01-12T23:19:52.463Z,-0.82
2019-01-12T23:24:56.543Z,-0.89
2019-01-12T23:30:04.623Z,-1.08
2019-01-12T23:35:07.448Z,-1.05
2019-01-12T23:40:11.941Z,-1.23
2019-01-12T23:45:16.061Z,-1.33
2019-01-12T23:50:20.128Z,-1.31
2019-01-12T23:55:24.754Z,-1.40
